sensor_id;sensor_type;location;lat;lon;timestamp;temperature;humidity
52245;DHT22;55759;51.586;-1.758;2022-07-11T00:02:08;18.60;50.10
52245;DHT22;55759;51.586;-1.758;2022-07-11T00:04:35;18.60;50.30
52245;DHT22;55759;51.586;-1.758;2022-07-11T00:07:02;18.60;50.50
52245;DHT22;55759;51.586;-1.758;2022-07-11T00:09:28;18.50;51.10
52245;DHT22;55759;51.586;-1.758;2022-07-11T00:11:54;18.50;51.40
52245;DHT22;55759;51.586;-1.758;2022-07-11T00:14:21;18.40;51.60
52245;DHT22;55759;51.586;-1.758;2022-07-11T00:16:51;18.40;51.90
52245;DHT22;55759;51.586;-1.758;2022-07-11T00:19:18;18.30;52.10
52245;DHT22;55759;51.586;-1.758;2022-07-11T00:21:44;18.30;52.40
52245;DHT22;55759;51.586;-1.758;2022-07-11T00:24:10;18.20;52.70
52245;DHT22;55759;51.586;-1.758;2022-07-11T00:26:37;18.20;52.60
52245;DHT22;55759;51.586;-1.758;2022-07-11T00:29:04;18.10;52.50
52245;DHT22;55759;51.586;-1.758;2022-07-11T00:31:30;18.10;52.60
52245;DHT22;55759;51.586;-1.758;2022-07-11T00:33:56;18.10;52.90
52245;DHT22;55759;51.586;-1.758;2022-07-11T00:36:22;18.10;53.00
52245;DHT22;55759;51.586;-1.758;2022-07-11T00:38:48;18.00;53.20
52245;DHT22;55759;51.586;-1.758;2022-07-11T00:41:14;18.00;53.40
52245;DHT22;55759;51.586;-1.758;2022-07-11T00:43:40;17.90;53.60
52245;DHT22;55759;51.586;-1.758;2022-07-11T00:46:08;17.80;53.90
52245;DHT22;55759;51.586;-1.758;2022-07-11T00:48:34;17.80;54.10
52245;DHT22;55759;51.586;-1.758;2022-07-11T00:51:04;17.70;54.20
52245;DHT22;55759;51.586;-1.758;2022-07-11T00:53:30;17.70;54.50
52245;DHT22;55759;51.586;-1.758;2022-07-11T00:55:56;17.60;54.70
52245;DHT22;55759;51.586;-1.758;2022-07-11T00:58:23;17.60;55.00
52245;DHT22;55759;51.586;-1.758;2022-07-11T01:00:49;17.60;55.10
52245;DHT22;55759;51.586;-1.758;2022-07-11T01:03:15;17.50;55.30
52245;DHT22;55759;51.586;-1.758;2022-07-11T01:05:41;17.40;55.50
52245;DHT22;55759;51.586;-1.758;2022-07-11T01:08:07;17.40;55.70
52245;DHT22;55759;51.586;-1.758;2022-07-11T01:10:33;17.30;55.90
52245;DHT22;55759;51.586;-1.758;2022-07-11T01:12:59;17.30;56.00
52245;DHT22;55759;51.586;-1.758;2022-07-11T01:15:25;17.20;56.30
52245;DHT22;55759;51.586;-1.758;2022-07-11T01:17:51;17.20;56.40
52245;DHT22;55759;51.586;-1.758;2022-07-11T01:20:20;17.20;56.60
52245;DHT22;55759;51.586;-1.758;2022-07-11T01:22:52;17.10;56.40
52245;DHT22;55759;51.586;-1.758;2022-07-11T01:25:19;17.10;56.40
52245;DHT22;55759;51.586;-1.758;2022-07-11T01:28:05;17.10;56.70
52245;DHT22;55759;51.586;-1.758;2022-07-11T01:30:34;17.10;57.00
52245;DHT22;55759;51.586;-1.758;2022-07-11T01:33:00;17.10;57.00
52245;DHT22;55759;51.586;-1.758;2022-07-11T01:35:27;17.00;57.20
52245;DHT22;55759;51.586;-1.758;2022-07-11T01:37:53;17.00;57.20
52245;DHT22;55759;51.586;-1.758;2022-07-11T01:40:19;16.90;57.60
52245;DHT22;55759;51.586;-1.758;2022-07-11T01:42:46;16.90;57.70
52245;DHT22;55759;51.586;-1.758;2022-07-11T01:45:12;16.90;58.00
52245;DHT22;55759;51.586;-1.758;2022-07-11T01:47:38;16.90;58.40
52245;DHT22;55759;51.586;-1.758;2022-07-11T01:50:04;16.90;58.50
52245;DHT22;55759;51.586;-1.758;2022-07-11T01:52:30;16.80;58.70
52245;DHT22;55759;51.586;-1.758;2022-07-11T01:54:56;16.80;58.90
52245;DHT22;55759;51.586;-1.758;2022-07-11T01:57:24;16.70;59.10
52245;DHT22;55759;51.586;-1.758;2022-07-11T01:59:50;16.70;59.60
52245;DHT22;55759;51.586;-1.758;2022-07-11T02:02:16;16.70;59.90
52245;DHT22;55759;51.586;-1.758;2022-07-11T02:04:42;16.70;60.20
52245;DHT22;55759;51.586;-1.758;2022-07-11T02:07:08;16.70;60.30
52245;DHT22;55759;51.586;-1.758;2022-07-11T02:09:37;16.70;60.90
52245;DHT22;55759;51.586;-1.758;2022-07-11T02:12:04;16.60;61.10
52245;DHT22;55759;51.586;-1.758;2022-07-11T02:14:30;16.60;61.30
52245;DHT22;55759;51.586;-1.758;2022-07-11T02:16:55;16.60;61.40
52245;DHT22;55759;51.586;-1.758;2022-07-11T02:19:21;16.60;61.60
52245;DHT22;55759;51.586;-1.758;2022-07-11T02:21:47;16.50;61.80
52245;DHT22;55759;51.586;-1.758;2022-07-11T02:24:13;16.50;62.00
52245;DHT22;55759;51.586;-1.758;2022-07-11T02:26:38;16.50;62.20
52245;DHT22;55759;51.586;-1.758;2022-07-11T02:29:04;16.40;62.30
52245;DHT22;55759;51.586;-1.758;2022-07-11T02:31:30;16.40;62.50
52245;DHT22;55759;51.586;-1.758;2022-07-11T02:33:55;16.40;62.70
52245;DHT22;55759;51.586;-1.758;2022-07-11T02:36:21;16.30;62.80
52245;DHT22;55759;51.586;-1.758;2022-07-11T02:38:47;16.20;63.00
52245;DHT22;55759;51.586;-1.758;2022-07-11T02:41:12;16.20;63.30
52245;DHT22;55759;51.586;-1.758;2022-07-11T02:43:38;16.20;63.40
52245;DHT22;55759;51.586;-1.758;2022-07-11T02:46:04;16.20;63.70
52245;DHT22;55759;51.586;-1.758;2022-07-11T02:48:30;16.10;63.80
52245;DHT22;55759;51.586;-1.758;2022-07-11T02:50:56;16.10;63.90
52245;DHT22;55759;51.586;-1.758;2022-07-11T02:53:22;16.10;64.00
52245;DHT22;55759;51.586;-1.758;2022-07-11T02:55:48;16.00;64.20
52245;DHT22;55759;51.586;-1.758;2022-07-11T02:58:14;16.00;64.40
52245;DHT22;55759;51.586;-1.758;2022-07-11T03:00:40;15.90;64.50
52245;DHT22;55759;51.586;-1.758;2022-07-11T03:03:06;15.90;64.70
52245;DHT22;55759;51.586;-1.758;2022-07-11T03:05:31;15.80;64.80
52245;DHT22;55759;51.586;-1.758;2022-07-11T03:07:57;15.80;65.20
52245;DHT22;55759;51.586;-1.758;2022-07-11T03:10:23;15.80;65.30
52245;DHT22;55759;51.586;-1.758;2022-07-11T03:12:50;15.70;65.50
52245;DHT22;55759;51.586;-1.758;2022-07-11T03:15:16;15.70;65.60
52245;DHT22;55759;51.586;-1.758;2022-07-11T03:17:41;15.70;65.70
52245;DHT22;55759;51.586;-1.758;2022-07-11T03:20:08;15.70;65.80
52245;DHT22;55759;51.586;-1.758;2022-07-11T03:22:34;15.70;66.00
52245;DHT22;55759;51.586;-1.758;2022-07-11T03:25:01;15.60;66.10
52245;DHT22;55759;51.586;-1.758;2022-07-11T03:27:29;15.60;66.20
52245;DHT22;55759;51.586;-1.758;2022-07-11T03:29:54;15.50;66.30
52245;DHT22;55759;51.586;-1.758;2022-07-11T03:32:20;15.50;66.50
52245;DHT22;55759;51.586;-1.758;2022-07-11T03:34:47;15.50;66.70
52245;DHT22;55759;51.586;-1.758;2022-07-11T03:37:32;15.50;66.70
52245;DHT22;55759;51.586;-1.758;2022-07-11T03:39:58;15.40;66.80
52245;DHT22;55759;51.586;-1.758;2022-07-11T03:42:24;15.40;67.10
52245;DHT22;55759;51.586;-1.758;2022-07-11T03:44:50;15.40;67.20
52245;DHT22;55759;51.586;-1.758;2022-07-11T03:47:17;15.30;67.40
52245;DHT22;55759;51.586;-1.758;2022-07-11T03:49:43;15.30;67.50
52245;DHT22;55759;51.586;-1.758;2022-07-11T03:52:12;15.20;67.60
52245;DHT22;55759;51.586;-1.758;2022-07-11T03:54:41;15.20;67.80
52245;DHT22;55759;51.586;-1.758;2022-07-11T03:57:08;15.20;67.80
52245;DHT22;55759;51.586;-1.758;2022-07-11T03:59:34;15.20;68.00
52245;DHT22;55759;51.586;-1.758;2022-07-11T04:02:02;15.10;67.90
52245;DHT22;55759;51.586;-1.758;2022-07-11T04:04:28;15.10;68.40
52245;DHT22;55759;51.586;-1.758;2022-07-11T04:06:54;15.10;68.50
52245;DHT22;55759;51.586;-1.758;2022-07-11T04:09:19;15.20;68.70
52245;DHT22;55759;51.586;-1.758;2022-07-11T04:11:47;15.20;68.90
52245;DHT22;55759;51.586;-1.758;2022-07-11T04:14:13;15.20;69.30
52245;DHT22;55759;51.586;-1.758;2022-07-11T04:16:43;15.20;69.20
52245;DHT22;55759;51.586;-1.758;2022-07-11T04:19:09;15.20;69.40
52245;DHT22;55759;51.586;-1.758;2022-07-11T04:21:35;15.10;69.60
52245;DHT22;55759;51.586;-1.758;2022-07-11T04:24:01;15.20;69.80
52245;DHT22;55759;51.586;-1.758;2022-07-11T04:26:27;15.20;69.90
52245;DHT22;55759;51.586;-1.758;2022-07-11T04:28:52;15.20;70.20
52245;DHT22;55759;51.586;-1.758;2022-07-11T04:31:18;15.20;70.20
52245;DHT22;55759;51.586;-1.758;2022-07-11T04:33:44;15.20;70.20
52245;DHT22;55759;51.586;-1.758;2022-07-11T04:36:09;15.10;70.20
52245;DHT22;55759;51.586;-1.758;2022-07-11T04:38:35;15.20;70.40
52245;DHT22;55759;51.586;-1.758;2022-07-11T04:41:01;15.20;70.40
52245;DHT22;55759;51.586;-1.758;2022-07-11T04:43:26;15.30;70.50
52245;DHT22;55759;51.586;-1.758;2022-07-11T04:45:52;15.30;70.30
52245;DHT22;55759;51.586;-1.758;2022-07-11T04:48:18;15.40;70.30
52245;DHT22;55759;51.586;-1.758;2022-07-11T04:50:44;15.40;70.40
52245;DHT22;55759;51.586;-1.758;2022-07-11T04:53:10;15.50;70.40
52245;DHT22;55759;51.586;-1.758;2022-07-11T04:55:37;15.60;70.30
52245;DHT22;55759;51.586;-1.758;2022-07-11T04:58:07;15.70;70.00
52245;DHT22;55759;51.586;-1.758;2022-07-11T05:00:34;15.70;70.00
52245;DHT22;55759;51.586;-1.758;2022-07-11T05:03:00;15.80;69.80
52245;DHT22;55759;51.586;-1.758;2022-07-11T05:05:26;15.90;69.80
52245;DHT22;55759;51.586;-1.758;2022-07-11T05:07:53;16.00;69.60
52245;DHT22;55759;51.586;-1.758;2022-07-11T05:10:19;16.10;69.30
52245;DHT22;55759;51.586;-1.758;2022-07-11T05:12:45;16.10;69.20
52245;DHT22;55759;51.586;-1.758;2022-07-11T05:15:13;16.30;69.10
52245;DHT22;55759;51.586;-1.758;2022-07-11T05:17:39;16.40;68.80
52245;DHT22;55759;51.586;-1.758;2022-07-11T05:20:06;16.50;68.70
52245;DHT22;55759;51.586;-1.758;2022-07-11T05:22:34;16.60;68.50
52245;DHT22;55759;51.586;-1.758;2022-07-11T05:25:06;16.70;68.20
52245;DHT22;55759;51.586;-1.758;2022-07-11T05:27:32;16.80;68.00
52245;DHT22;55759;51.586;-1.758;2022-07-11T05:29:58;16.90;67.90
52245;DHT22;55759;51.586;-1.758;2022-07-11T05:32:23;17.00;67.80
52245;DHT22;55759;51.586;-1.758;2022-07-11T05:34:49;17.10;67.70
52245;DHT22;55759;51.586;-1.758;2022-07-11T05:37:15;17.20;67.50
52245;DHT22;55759;51.586;-1.758;2022-07-11T05:39:41;17.30;67.50
52245;DHT22;55759;51.586;-1.758;2022-07-11T05:42:07;17.40;67.20
52245;DHT22;55759;51.586;-1.758;2022-07-11T05:44:33;17.60;66.70
52245;DHT22;55759;51.586;-1.758;2022-07-11T05:47:02;17.70;66.20
52245;DHT22;55759;51.586;-1.758;2022-07-11T05:49:35;17.80;65.70
52245;DHT22;55759;51.586;-1.758;2022-07-11T05:52:01;17.90;65.00
52245;DHT22;55759;51.586;-1.758;2022-07-11T05:54:29;18.10;64.60
52245;DHT22;55759;51.586;-1.758;2022-07-11T05:56:58;18.10;64.40
52245;DHT22;55759;51.586;-1.758;2022-07-11T05:59:24;18.20;64.00
52245;DHT22;55759;51.586;-1.758;2022-07-11T06:01:50;18.40;63.70
52245;DHT22;55759;51.586;-1.758;2022-07-11T06:04:18;18.50;63.20
52245;DHT22;55759;51.586;-1.758;2022-07-11T06:06:44;18.60;62.60
52245;DHT22;55759;51.586;-1.758;2022-07-11T06:09:10;18.70;61.90
52245;DHT22;55759;51.586;-1.758;2022-07-11T06:11:36;18.80;61.70
52245;DHT22;55759;51.586;-1.758;2022-07-11T06:14:02;18.90;61.50
52245;DHT22;55759;51.586;-1.758;2022-07-11T06:16:37;19.10;61.30
52245;DHT22;55759;51.586;-1.758;2022-07-11T06:19:03;19.10;60.90
52245;DHT22;55759;51.586;-1.758;2022-07-11T06:21:28;19.30;60.60
52245;DHT22;55759;51.586;-1.758;2022-07-11T06:23:57;19.30;60.40
52245;DHT22;55759;51.586;-1.758;2022-07-11T06:26:23;19.30;60.50
52245;DHT22;55759;51.586;-1.758;2022-07-11T06:28:49;19.40;60.40
52245;DHT22;55759;51.586;-1.758;2022-07-11T06:31:14;19.50;60.30
52245;DHT22;55759;51.586;-1.758;2022-07-11T06:33:42;19.60;60.20
52245;DHT22;55759;51.586;-1.758;2022-07-11T06:36:10;19.70;60.20
52245;DHT22;55759;51.586;-1.758;2022-07-11T06:38:38;19.80;60.20
52245;DHT22;55759;51.586;-1.758;2022-07-11T06:41:04;19.90;60.20
52245;DHT22;55759;51.586;-1.758;2022-07-11T06:43:30;20.10;59.70
52245;DHT22;55759;51.586;-1.758;2022-07-11T06:45:58;20.10;59.30
52245;DHT22;55759;51.586;-1.758;2022-07-11T06:48:25;20.20;58.00
52245;DHT22;55759;51.586;-1.758;2022-07-11T06:50:51;20.30;57.80
52245;DHT22;55759;51.586;-1.758;2022-07-11T06:53:16;20.40;57.80
52245;DHT22;55759;51.586;-1.758;2022-07-11T06:55:45;20.50;57.20
52245;DHT22;55759;51.586;-1.758;2022-07-11T06:58:14;20.50;57.20
52245;DHT22;55759;51.586;-1.758;2022-07-11T07:01:00;20.60;57.30
52245;DHT22;55759;51.586;-1.758;2022-07-11T07:03:27;20.70;56.70
52245;DHT22;55759;51.586;-1.758;2022-07-11T07:05:54;20.80;56.10
52245;DHT22;55759;51.586;-1.758;2022-07-11T07:08:25;21.00;56.40
52245;DHT22;55759;51.586;-1.758;2022-07-11T07:10:54;21.10;56.20
52245;DHT22;55759;51.586;-1.758;2022-07-11T07:13:20;21.20;54.90
52245;DHT22;55759;51.586;-1.758;2022-07-11T07:15:49;21.40;53.50
52245;DHT22;55759;51.586;-1.758;2022-07-11T07:18:15;21.50;52.70
52245;DHT22;55759;51.586;-1.758;2022-07-11T07:20:43;21.60;52.00
52245;DHT22;55759;51.586;-1.758;2022-07-11T07:23:08;21.70;51.30
52245;DHT22;55759;51.586;-1.758;2022-07-11T07:25:34;21.90;51.20
52245;DHT22;55759;51.586;-1.758;2022-07-11T07:28:00;21.90;50.80
52245;DHT22;55759;51.586;-1.758;2022-07-11T07:30:26;22.10;49.80
52245;DHT22;55759;51.586;-1.758;2022-07-11T07:32:52;22.20;49.30
52245;DHT22;55759;51.586;-1.758;2022-07-11T07:35:18;22.40;49.20
52245;DHT22;55759;51.586;-1.758;2022-07-11T07:37:43;22.50;48.90
52245;DHT22;55759;51.586;-1.758;2022-07-11T07:40:09;22.60;48.80
52245;DHT22;55759;51.586;-1.758;2022-07-11T07:42:35;22.70;49.00
52245;DHT22;55759;51.586;-1.758;2022-07-11T07:45:01;22.90;49.10
52245;DHT22;55759;51.586;-1.758;2022-07-11T07:47:27;23.00;49.10
52245;DHT22;55759;51.586;-1.758;2022-07-11T07:49:55;23.10;49.30
52245;DHT22;55759;51.586;-1.758;2022-07-11T07:52:21;23.10;48.80
52245;DHT22;55759;51.586;-1.758;2022-07-11T07:54:47;23.30;48.90
52245;DHT22;55759;51.586;-1.758;2022-07-11T07:57:13;23.50;48.10
52245;DHT22;55759;51.586;-1.758;2022-07-11T07:59:38;23.60;46.20
52245;DHT22;55759;51.586;-1.758;2022-07-11T08:02:04;23.70;46.40
52245;DHT22;55759;51.586;-1.758;2022-07-11T08:04:29;23.80;46.30
52245;DHT22;55759;51.586;-1.758;2022-07-11T08:06:55;23.80;46.40
52245;DHT22;55759;51.586;-1.758;2022-07-11T08:09:24;23.90;46.70
52245;DHT22;55759;51.586;-1.758;2022-07-11T08:11:50;24.00;46.60
52245;DHT22;55759;51.586;-1.758;2022-07-11T08:14:16;24.10;46.80
52245;DHT22;55759;51.586;-1.758;2022-07-11T08:16:42;24.20;46.70
52245;DHT22;55759;51.586;-1.758;2022-07-11T08:19:08;24.30;46.90
52245;DHT22;55759;51.586;-1.758;2022-07-11T08:21:35;24.40;46.90
52245;DHT22;55759;51.586;-1.758;2022-07-11T08:24:00;24.50;47.40
52245;DHT22;55759;51.586;-1.758;2022-07-11T08:26:27;24.60;47.20
52245;DHT22;55759;51.586;-1.758;2022-07-11T08:28:53;24.60;47.30
52245;DHT22;55759;51.586;-1.758;2022-07-11T08:31:18;24.70;47.50
52245;DHT22;55759;51.586;-1.758;2022-07-11T08:33:44;24.80;47.30
52245;DHT22;55759;51.586;-1.758;2022-07-11T08:36:11;24.80;47.40
52245;DHT22;55759;51.586;-1.758;2022-07-11T08:38:37;24.90;47.20
52245;DHT22;55759;51.586;-1.758;2022-07-11T08:41:03;25.00;47.00
52245;DHT22;55759;51.586;-1.758;2022-07-11T08:43:29;25.10;47.10
52245;DHT22;55759;51.586;-1.758;2022-07-11T08:45:55;25.20;47.10
52245;DHT22;55759;51.586;-1.758;2022-07-11T08:48:22;25.20;46.30
52245;DHT22;55759;51.586;-1.758;2022-07-11T08:50:50;25.20;46.50
52245;DHT22;55759;51.586;-1.758;2022-07-11T08:53:16;25.20;46.80
52245;DHT22;55759;51.586;-1.758;2022-07-11T08:55:42;25.30;46.80
52245;DHT22;55759;51.586;-1.758;2022-07-11T08:58:09;25.40;47.00
52245;DHT22;55759;51.586;-1.758;2022-07-11T09:00:36;25.50;46.70
52245;DHT22;55759;51.586;-1.758;2022-07-11T09:03:03;25.60;46.20
52245;DHT22;55759;51.586;-1.758;2022-07-11T09:05:31;25.80;46.30
52245;DHT22;55759;51.586;-1.758;2022-07-11T09:07:57;25.90;46.10
52245;DHT22;55759;51.586;-1.758;2022-07-11T09:10:24;26.10;45.80
52245;DHT22;55759;51.586;-1.758;2022-07-11T09:13:13;26.20;45.00
52245;DHT22;55759;51.586;-1.758;2022-07-11T09:15:46;26.30;44.50
52245;DHT22;55759;51.586;-1.758;2022-07-11T09:18:35;26.30;44.80
52245;DHT22;55759;51.586;-1.758;2022-07-11T09:21:13;26.40;44.90
52245;DHT22;55759;51.586;-1.758;2022-07-11T09:24:03;26.50;45.00
52245;DHT22;55759;51.586;-1.758;2022-07-11T09:26:50;26.60;44.40
52245;DHT22;55759;51.586;-1.758;2022-07-11T09:29:18;26.70;44.00
52245;DHT22;55759;51.586;-1.758;2022-07-11T09:31:46;26.80;44.10
52245;DHT22;55759;51.586;-1.758;2022-07-11T09:34:17;26.80;43.50
52245;DHT22;55759;51.586;-1.758;2022-07-11T09:36:45;26.90;43.60
52245;DHT22;55759;51.586;-1.758;2022-07-11T09:39:19;26.90;43.80
52245;DHT22;55759;51.586;-1.758;2022-07-11T09:41:53;27.00;43.30
52245;DHT22;55759;51.586;-1.758;2022-07-11T09:44:25;27.10;43.30
52245;DHT22;55759;51.586;-1.758;2022-07-11T09:46:56;27.10;42.90
52245;DHT22;55759;51.586;-1.758;2022-07-11T09:49:38;27.20;42.60
52245;DHT22;55759;51.586;-1.758;2022-07-11T09:52:15;27.30;42.10
52245;DHT22;55759;51.586;-1.758;2022-07-11T09:55:00;27.30;42.30
52245;DHT22;55759;51.586;-1.758;2022-07-11T09:57:34;27.50;42.40
52245;DHT22;55759;51.586;-1.758;2022-07-11T10:00:02;27.60;42.30
52245;DHT22;55759;51.586;-1.758;2022-07-11T10:02:30;27.60;41.30
52245;DHT22;55759;51.586;-1.758;2022-07-11T10:04:57;27.60;40.90
52245;DHT22;55759;51.586;-1.758;2022-07-11T10:07:25;27.70;41.40
52245;DHT22;55759;51.586;-1.758;2022-07-11T10:09:51;27.80;41.70
52245;DHT22;55759;51.586;-1.758;2022-07-11T10:12:17;28.00;41.20
52245;DHT22;55759;51.586;-1.758;2022-07-11T10:14:43;28.10;41.00
52245;DHT22;55759;51.586;-1.758;2022-07-11T10:20:24;28.50;39.90
52245;DHT22;55759;51.586;-1.758;2022-07-11T10:26:16;29.00;39.70
52245;DHT22;55759;51.586;-1.758;2022-07-11T10:28:55;29.40;39.10
52245;DHT22;55759;51.586;-1.758;2022-07-11T10:31:24;30.10;38.00
52245;DHT22;55759;51.586;-1.758;2022-07-11T10:34:04;31.00;35.20
52245;DHT22;55759;51.586;-1.758;2022-07-11T10:36:32;32.00;33.60
52245;DHT22;55759;51.586;-1.758;2022-07-11T10:39:19;33.00;32.00
52245;DHT22;55759;51.586;-1.758;2022-07-11T10:41:54;34.20;30.50
52245;DHT22;55759;51.586;-1.758;2022-07-11T10:44:21;35.40;28.80
52245;DHT22;55759;51.586;-1.758;2022-07-11T10:46:47;36.30;27.70
52245;DHT22;55759;51.586;-1.758;2022-07-11T10:57:35;39.00;24.40
52245;DHT22;55759;51.586;-1.758;2022-07-11T11:00:07;39.90;23.30
52245;DHT22;55759;51.586;-1.758;2022-07-11T11:05:48;41.30;22.10
52245;DHT22;55759;51.586;-1.758;2022-07-11T11:16:42;43.70;19.90
52245;DHT22;55759;51.586;-1.758;2022-07-11T11:22:16;44.30;18.80
52245;DHT22;55759;51.586;-1.758;2022-07-11T11:24:43;44.80;18.80
52245;DHT22;55759;51.586;-1.758;2022-07-11T11:27:20;46.10;18.00
52245;DHT22;55759;51.586;-1.758;2022-07-11T11:29:48;47.50;17.30
52245;DHT22;55759;51.586;-1.758;2022-07-11T11:32:14;48.30;17.10
52245;DHT22;55759;51.586;-1.758;2022-07-11T11:34:40;49.00;15.50
52245;DHT22;55759;51.586;-1.758;2022-07-11T11:37:08;48.80;15.30
52245;DHT22;55759;51.586;-1.758;2022-07-11T11:39:35;48.60;15.30
52245;DHT22;55759;51.586;-1.758;2022-07-11T11:42:05;48.60;15.30
52245;DHT22;55759;51.586;-1.758;2022-07-11T11:44:32;49.10;15.20
52245;DHT22;55759;51.586;-1.758;2022-07-11T11:46:58;50.00;14.90
52245;DHT22;55759;51.586;-1.758;2022-07-11T11:49:24;51.10;14.30
52245;DHT22;55759;51.586;-1.758;2022-07-11T11:51:49;51.10;14.30
52245;DHT22;55759;51.586;-1.758;2022-07-11T11:54:24;51.50;14.30
52245;DHT22;55759;51.586;-1.758;2022-07-11T11:56:50;51.80;14.30
52245;DHT22;55759;51.586;-1.758;2022-07-11T11:59:16;52.70;14.00
52245;DHT22;55759;51.586;-1.758;2022-07-11T12:01:45;53.00;13.60
52245;DHT22;55759;51.586;-1.758;2022-07-11T12:04:12;53.30;13.40
52245;DHT22;55759;51.586;-1.758;2022-07-11T12:06:42;53.40;12.80
52245;DHT22;55759;51.586;-1.758;2022-07-11T12:09:13;52.60;13.40
52245;DHT22;55759;51.586;-1.758;2022-07-11T12:11:42;53.10;13.50
52245;DHT22;55759;51.586;-1.758;2022-07-11T12:14:11;53.60;12.80
52245;DHT22;55759;51.586;-1.758;2022-07-11T12:16:42;53.50;12.90
52245;DHT22;55759;51.586;-1.758;2022-07-11T12:19:15;54.00;12.80
52245;DHT22;55759;51.586;-1.758;2022-07-11T12:21:50;55.00;12.50
52245;DHT22;55759;51.586;-1.758;2022-07-11T12:24:18;55.60;12.20
52245;DHT22;55759;51.586;-1.758;2022-07-11T12:26:45;55.70;12.10
52245;DHT22;55759;51.586;-1.758;2022-07-11T12:31:58;56.10;11.80
52245;DHT22;55759;51.586;-1.758;2022-07-11T12:34:26;56.50;11.90
52245;DHT22;55759;51.586;-1.758;2022-07-11T12:37:12;56.60;11.60
52245;DHT22;55759;51.586;-1.758;2022-07-11T12:39:46;56.30;11.90
52245;DHT22;55759;51.586;-1.758;2022-07-11T12:42:23;56.60;11.90
52245;DHT22;55759;51.586;-1.758;2022-07-11T12:45:04;56.80;12.10
52245;DHT22;55759;51.586;-1.758;2022-07-11T12:47:44;57.30;11.80
52245;DHT22;55759;51.586;-1.758;2022-07-11T12:50:20;57.20;11.70
52245;DHT22;55759;51.586;-1.758;2022-07-11T12:52:48;57.60;11.60
52245;DHT22;55759;51.586;-1.758;2022-07-11T12:55:31;57.50;11.50
52245;DHT22;55759;51.586;-1.758;2022-07-11T12:58:12;55.90;12.00
52245;DHT22;55759;51.586;-1.758;2022-07-11T13:01:03;55.60;12.40
52245;DHT22;55759;51.586;-1.758;2022-07-11T13:03:35;56.00;12.60
52245;DHT22;55759;51.586;-1.758;2022-07-11T13:06:02;56.70;11.90
52245;DHT22;55759;51.586;-1.758;2022-07-11T13:08:35;57.00;11.70
52245;DHT22;55759;51.586;-1.758;2022-07-11T13:11:19;57.60;11.50
52245;DHT22;55759;51.586;-1.758;2022-07-11T13:13:47;58.00;11.10
52245;DHT22;55759;51.586;-1.758;2022-07-11T13:16:15;57.40;11.20
52245;DHT22;55759;51.586;-1.758;2022-07-11T13:18:40;55.60;11.80
52245;DHT22;55759;51.586;-1.758;2022-07-11T13:21:06;53.40;12.50
52245;DHT22;55759;51.586;-1.758;2022-07-11T13:23:38;51.80;13.40
52245;DHT22;55759;51.586;-1.758;2022-07-11T13:26:06;49.90;14.30
52245;DHT22;55759;51.586;-1.758;2022-07-11T13:28:32;50.90;13.90
52245;DHT22;55759;51.586;-1.758;2022-07-11T13:30:58;52.00;13.60
52245;DHT22;55759;51.586;-1.758;2022-07-11T13:33:25;52.90;13.30
52245;DHT22;55759;51.586;-1.758;2022-07-11T13:35:51;53.90;12.70
52245;DHT22;55759;51.586;-1.758;2022-07-11T13:38:19;54.50;12.60
52245;DHT22;55759;51.586;-1.758;2022-07-11T13:40:45;54.90;12.30
52245;DHT22;55759;51.586;-1.758;2022-07-11T13:43:11;53.60;12.70
52245;DHT22;55759;51.586;-1.758;2022-07-11T13:45:39;53.50;12.80
52245;DHT22;55759;51.586;-1.758;2022-07-11T13:48:06;54.00;13.10
52245;DHT22;55759;51.586;-1.758;2022-07-11T13:50:32;55.40;12.40
52245;DHT22;55759;51.586;-1.758;2022-07-11T13:52:58;56.70;11.90
52245;DHT22;55759;51.586;-1.758;2022-07-11T13:55:24;56.80;11.80
52245;DHT22;55759;51.586;-1.758;2022-07-11T13:57:55;56.00;11.90
52245;DHT22;55759;51.586;-1.758;2022-07-11T14:00:22;55.40;12.10
52245;DHT22;55759;51.586;-1.758;2022-07-11T14:02:49;55.40;12.00
52245;DHT22;55759;51.586;-1.758;2022-07-11T14:05:16;53.80;12.40
52245;DHT22;55759;51.586;-1.758;2022-07-11T14:07:44;51.20;13.60
52245;DHT22;55759;51.586;-1.758;2022-07-11T14:10:09;49.30;14.70
52245;DHT22;55759;51.586;-1.758;2022-07-11T14:12:35;48.90;15.30
52245;DHT22;55759;51.586;-1.758;2022-07-11T14:15:01;49.50;15.00
52245;DHT22;55759;51.586;-1.758;2022-07-11T14:17:28;50.30;14.50
52245;DHT22;55759;51.586;-1.758;2022-07-11T14:19:54;51.20;14.40
52245;DHT22;55759;51.586;-1.758;2022-07-11T14:22:21;52.50;13.60
52245;DHT22;55759;51.586;-1.758;2022-07-11T14:24:47;52.10;13.50
52245;DHT22;55759;51.586;-1.758;2022-07-11T14:27:14;52.20;13.60
52245;DHT22;55759;51.586;-1.758;2022-07-11T14:29:41;53.10;13.00
52245;DHT22;55759;51.586;-1.758;2022-07-11T14:32:07;53.30;13.00
52245;DHT22;55759;51.586;-1.758;2022-07-11T14:34:33;52.20;13.40
52245;DHT22;55759;51.586;-1.758;2022-07-11T14:36:59;52.50;13.70
52245;DHT22;55759;51.586;-1.758;2022-07-11T14:39:24;53.60;13.20
52245;DHT22;55759;51.586;-1.758;2022-07-11T14:41:50;53.60;12.70
52245;DHT22;55759;51.586;-1.758;2022-07-11T14:44:17;52.90;13.20
52245;DHT22;55759;51.586;-1.758;2022-07-11T14:46:43;53.50;13.30
52245;DHT22;55759;51.586;-1.758;2022-07-11T14:49:09;53.50;13.10
52245;DHT22;55759;51.586;-1.758;2022-07-11T14:51:36;53.20;13.20
52245;DHT22;55759;51.586;-1.758;2022-07-11T14:54:02;52.30;13.40
52245;DHT22;55759;51.586;-1.758;2022-07-11T14:56:28;51.20;13.80
52245;DHT22;55759;51.586;-1.758;2022-07-11T14:58:54;51.10;14.20
52245;DHT22;55759;51.586;-1.758;2022-07-11T15:01:20;51.70;13.70
52245;DHT22;55759;51.586;-1.758;2022-07-11T15:03:46;52.60;13.20
52245;DHT22;55759;51.586;-1.758;2022-07-11T15:06:14;53.70;12.70
52245;DHT22;55759;51.586;-1.758;2022-07-11T15:08:40;54.30;12.60
52245;DHT22;55759;51.586;-1.758;2022-07-11T15:11:25;54.70;12.40
52245;DHT22;55759;51.586;-1.758;2022-07-11T15:14:10;55.30;12.30
52245;DHT22;55759;51.586;-1.758;2022-07-11T15:16:36;56.40;12.10
52245;DHT22;55759;51.586;-1.758;2022-07-11T15:19:06;57.10;11.70
52245;DHT22;55759;51.586;-1.758;2022-07-11T15:21:33;57.80;11.50
52245;DHT22;55759;51.586;-1.758;2022-07-11T15:24:00;57.10;11.80
52245;DHT22;55759;51.586;-1.758;2022-07-11T15:26:26;57.00;11.90
52245;DHT22;55759;51.586;-1.758;2022-07-11T15:28:52;57.10;11.80
52245;DHT22;55759;51.586;-1.758;2022-07-11T15:31:19;57.50;11.60
52245;DHT22;55759;51.586;-1.758;2022-07-11T15:33:45;57.30;11.30
52245;DHT22;55759;51.586;-1.758;2022-07-11T15:36:15;56.30;11.80
52245;DHT22;55759;51.586;-1.758;2022-07-11T15:38:44;56.00;12.00
52245;DHT22;55759;51.586;-1.758;2022-07-11T15:41:15;55.90;11.90
52245;DHT22;55759;51.586;-1.758;2022-07-11T15:43:41;54.60;12.30
52245;DHT22;55759;51.586;-1.758;2022-07-11T15:46:07;53.40;12.90
52245;DHT22;55759;51.586;-1.758;2022-07-11T15:48:33;52.80;13.10
52245;DHT22;55759;51.586;-1.758;2022-07-11T15:50:59;52.80;13.10
52245;DHT22;55759;51.586;-1.758;2022-07-11T15:53:25;51.70;13.40